sensor_id;sensor_type;location;lat;lon;timestamp;pressure;altitude;pressure_sealevel;temperature;humidity
76311;BME280;65120;59.304;18.294;2022-12-07T00:01:23;100966.44;;;-2.06;68.24
76311;BME280;65120;59.304;18.294;2022-12-07T00:03:52;100963.84;;;-2.08;68.33
76311;BME280;65120;59.304;18.294;2022-12-07T00:06:20;100963.84;;;-2.08;68.50
76311;BME280;65120;59.304;18.294;2022-12-07T00:08:47;100969.75;;;-2.09;68.34
76311;BME280;65120;59.304;18.294;2022-12-07T00:11:16;100964.59;;;-2.10;68.40
76311;BME280;65120;59.304;18.294;2022-12-07T00:13:43;100959.41;;;-2.12;68.14
76311;BME280;65120;59.304;18.294;2022-12-07T00:16:11;100943.94;;;-2.15;68.03
76311;BME280;65120;59.304;18.294;2022-12-07T00:18:40;100949.88;;;-2.16;68.40
76311;BME280;65120;59.304;18.294;2022-12-07T00:21:10;100934.06;;;-2.28;68.36
76311;BME280;65120;59.304;18.294;2022-12-07T00:23:37;100950.56;;;-2.20;68.36
76311;BME280;65120;59.304;18.294;2022-12-07T00:26:05;100946.19;;;-2.24;68.24
76311;BME280;65120;59.304;18.294;2022-12-07T00:28:33;100953.03;;;-2.23;68.31
76311;BME280;65120;59.304;18.294;2022-12-07T00:31:02;100944.41;;;-2.25;68.35
76311;BME280;65120;59.304;18.294;2022-12-07T00:33:29;100938.28;;;-2.30;68.28
76311;BME280;65120;59.304;18.294;2022-12-07T00:35:58;100941.72;;;-2.30;68.45
76311;BME280;65120;59.304;18.294;2022-12-07T00:38:27;100946.75;;;-2.31;68.35
76311;BME280;65120;59.304;18.294;2022-12-07T00:40:56;100940.72;;;-2.33;68.22
76311;BME280;65120;59.304;18.294;2022-12-07T00:43:23;100937.25;;;-2.35;68.29
76311;BME280;65120;59.304;18.294;2022-12-07T00:45:49;100933.81;;;-2.36;68.47
76311;BME280;65120;59.304;18.294;2022-12-07T00:48:16;100935.44;;;-2.38;68.35
76311;BME280;65120;59.304;18.294;2022-12-07T00:50:43;100934.47;;;-2.41;68.79
76311;BME280;65120;59.304;18.294;2022-12-07T00:53:11;100924.91;;;-2.45;68.22
76311;BME280;65120;59.304;18.294;2022-12-07T00:55:38;100933.53;;;-2.43;68.33
76311;BME280;65120;59.304;18.294;2022-12-07T00:58:05;100939.47;;;-2.44;68.36
76311;BME280;65120;59.304;18.294;2022-12-07T01:00:32;100935.97;;;-2.46;68.32
76311;BME280;65120;59.304;18.294;2022-12-07T01:03:00;100939.34;;;-2.47;68.25
76311;BME280;65120;59.304;18.294;2022-12-07T01:05:26;100935.00;;;-2.50;68.52
76311;BME280;65120;59.304;18.294;2022-12-07T01:07:53;100931.50;;;-2.52;68.47
76311;BME280;65120;59.304;18.294;2022-12-07T01:10:21;100933.09;;;-2.56;68.50
76311;BME280;65120;59.304;18.294;2022-12-07T01:12:48;100938.25;;;-2.54;68.40
76311;BME280;65120;59.304;18.294;2022-12-07T01:15:15;100935.53;;;-2.59;68.24
76311;BME280;65120;59.304;18.294;2022-12-07T01:17:42;100934.75;;;-2.56;68.60
76311;BME280;65120;59.304;18.294;2022-12-07T01:20:09;100927.03;;;-2.58;68.35
76311;BME280;65120;59.304;18.294;2022-12-07T01:22:37;100930.41;;;-2.59;68.53
76311;BME280;65120;59.304;18.294;2022-12-07T01:25:04;100929.59;;;-2.58;68.67
76311;BME280;65120;59.304;18.294;2022-12-07T01:27:34;100933.78;;;-2.60;68.58
76311;BME280;65120;59.304;18.294;2022-12-07T01:30:01;100927.59;;;-2.65;68.45
76311;BME280;65120;59.304;18.294;2022-12-07T01:32:29;100933.66;;;-2.63;68.61
76311;BME280;65120;59.304;18.294;2022-12-07T01:34:55;100931.00;;;-2.66;68.75
76311;BME280;65120;59.304;18.294;2022-12-07T01:37:22;100931.94;;;-2.64;68.58
76311;BME280;65120;59.304;18.294;2022-12-07T01:39:49;100929.19;;;-2.68;68.68
76311;BME280;65120;59.304;18.294;2022-12-07T01:42:17;100917.88;;;-2.75;68.34
76311;BME280;65120;59.304;18.294;2022-12-07T01:47:56;100934.41;;;-2.65;68.75
76311;BME280;65120;59.304;18.294;2022-12-07T01:50:26;100933.53;;;-2.66;68.74
76311;BME280;65120;59.304;18.294;2022-12-07T01:52:58;100934.38;;;-2.67;68.56
76311;BME280;65120;59.304;18.294;2022-12-07T01:55:27;100924.94;;;-2.68;68.79
76311;BME280;65120;59.304;18.294;2022-12-07T01:57:54;100923.19;;;-2.69;68.54
76311;BME280;65120;59.304;18.294;2022-12-07T02:00:22;100918.91;;;-2.70;68.80
76311;BME280;65120;59.304;18.294;2022-12-07T02:02:52;100914.72;;;-2.68;68.90
76311;BME280;65120;59.304;18.294;2022-12-07T02:05:22;100920.66;;;-2.69;68.80
76311;BME280;65120;59.304;18.294;2022-12-07T02:07:51;100923.19;;;-2.69;68.73
76311;BME280;65120;59.304;18.294;2022-12-07T02:10:22;100917.03;;;-2.74;68.78
76311;BME280;65120;59.304;18.294;2022-12-07T02:12:52;100927.44;;;-2.69;68.97
76311;BME280;65120;59.304;18.294;2022-12-07T02:15:22;100923.19;;;-2.69;68.84
76311;BME280;65120;59.304;18.294;2022-12-07T02:17:58;100905.13;;;-2.74;69.07
76311;BME280;65120;59.304;18.294;2022-12-07T02:20:31;100908.72;;;-2.68;69.04
76311;BME280;65120;59.304;18.294;2022-12-07T02:26:40;100916.47;;;-2.67;69.08
76311;BME280;65120;59.304;18.294;2022-12-07T02:29:18;100908.81;;;-2.67;69.07
76311;BME280;65120;59.304;18.294;2022-12-07T02:31:53;100905.31;;;-2.69;68.99
76311;BME280;65120;59.304;18.294;2022-12-07T02:34:39;100904.59;;;-2.65;69.10
76311;BME280;65120;59.304;18.294;2022-12-07T02:37:13;100900.31;;;-2.66;69.27
76311;BME280;65120;59.304;18.294;2022-12-07T02:39:48;100900.38;;;-2.64;69.01
76311;BME280;65120;59.304;18.294;2022-12-07T02:42:22;100889.13;;;-2.68;68.97
76311;BME280;65120;59.304;18.294;2022-12-07T02:44:52;100895.25;;;-2.64;68.96
76311;BME280;65120;59.304;18.294;2022-12-07T02:47:20;100886.69;;;-2.65;69.12
76311;BME280;65120;59.304;18.294;2022-12-07T02:49:49;100887.63;;;-2.63;69.16
76311;BME280;65120;59.304;18.294;2022-12-07T02:52:16;100881.66;;;-2.63;69.15
76311;BME280;65120;59.304;18.294;2022-12-07T02:54:42;100889.38;;;-2.62;69.31
76311;BME280;65120;59.304;18.294;2022-12-07T02:57:19;100886.00;;;-2.61;69.20
76311;BME280;65120;59.304;18.294;2022-12-07T02:59:59;100887.72;;;-2.60;69.45
76311;BME280;65120;59.304;18.294;2022-12-07T03:02:34;100876.63;;;-2.60;68.93
76311;BME280;65120;59.304;18.294;2022-12-07T03:05:13;100873.25;;;-2.59;68.86
76311;BME280;65120;59.304;18.294;2022-12-07T03:07:51;100871.59;;;-2.59;68.90
76311;BME280;65120;59.304;18.294;2022-12-07T03:10:24;100870.78;;;-2.58;69.29
76311;BME280;65120;59.304;18.294;2022-12-07T03:13:02;100873.31;;;-2.58;69.14
76311;BME280;65120;59.304;18.294;2022-12-07T03:15:35;100873.31;;;-2.58;69.14
76311;BME280;65120;59.304;18.294;2022-12-07T03:18:07;100867.34;;;-2.58;69.19
76311;BME280;65120;59.304;18.294;2022-12-07T03:20:36;100873.25;;;-2.59;69.11
76311;BME280;65120;59.304;18.294;2022-12-07T03:23:06;100874.94;;;-2.60;69.04
76311;BME280;65120;59.304;18.294;2022-12-07T03:25:35;100875.81;;;-2.59;69.04
76311;BME280;65120;59.304;18.294;2022-12-07T03:28:05;100864.63;;;-2.63;69.42
76311;BME280;65120;59.304;18.294;2022-12-07T03:30:38;100859.59;;;-2.60;69.01
76311;BME280;65120;59.304;18.294;2022-12-07T03:33:10;100862.16;;;-2.60;69.41
76311;BME280;65120;59.304;18.294;2022-12-07T03:35:40;100862.16;;;-2.60;69.19
76311;BME280;65120;59.304;18.294;2022-12-07T03:38:15;100858.81;;;-2.59;69.12
76311;BME280;65120;59.304;18.294;2022-12-07T03:40:47;100843.94;;;-2.69;69.27
76311;BME280;65120;59.304;18.294;2022-12-07T03:43:17;100859.59;;;-2.60;68.96
76311;BME280;65120;59.304;18.294;2022-12-07T03:45:54;100863.94;;;-2.59;69.40
76311;BME280;65120;59.304;18.294;2022-12-07T03:48:28;100861.28;;;-2.60;69.32
76311;BME280;65120;59.304;18.294;2022-12-07T03:51:01;100851.06;;;-2.60;69.33
76311;BME280;65120;59.304;18.294;2022-12-07T03:53:36;100855.34;;;-2.59;69.38
76311;BME280;65120;59.304;18.294;2022-12-07T03:56:06;100852.75;;;-2.61;69.45
76311;BME280;65120;59.304;18.294;2022-12-07T03:58:35;100841.69;;;-2.60;69.39
76311;BME280;65120;59.304;18.294;2022-12-07T04:01:03;100840.84;;;-2.60;69.32
76311;BME280;65120;59.304;18.294;2022-12-07T04:03:30;100848.59;;;-2.59;69.37
76311;BME280;65120;59.304;18.294;2022-12-07T04:05:57;100841.69;;;-2.60;69.22
76311;BME280;65120;59.304;18.294;2022-12-07T04:08:24;100840.84;;;-2.60;69.61
76311;BME280;65120;59.304;18.294;2022-12-07T04:10:51;100848.59;;;-2.59;70.04
76311;BME280;65120;59.304;18.294;2022-12-07T04:13:18;100844.38;;;-2.57;69.50
76311;BME280;65120;59.304;18.294;2022-12-07T04:15:45;100846.06;;;-2.57;69.60
76311;BME280;65120;59.304;18.294;2022-12-07T04:18:13;100831.59;;;-2.57;69.85
76311;BME280;65120;59.304;18.294;2022-12-07T04:20:39;100831.66;;;-2.55;69.54
76311;BME280;65120;59.304;18.294;2022-12-07T04:23:06;100835.91;;;-2.56;69.61
76311;BME280;65120;59.304;18.294;2022-12-07T04:25:33;100831.59;;;-2.57;69.57
76311;BME280;65120;59.304;18.294;2022-12-07T04:28:00;100837.56;;;-2.56;69.62
76311;BME280;65120;59.304;18.294;2022-12-07T04:30:27;100827.28;;;-2.58;69.51
76311;BME280;65120;59.304;18.294;2022-12-07T04:32:53;100826.47;;;-2.57;69.52
76311;BME280;65120;59.304;18.294;2022-12-07T04:35:21;100821.34;;;-2.57;69.62
76311;BME280;65120;59.304;18.294;2022-12-07T04:37:48;100823.13;;;-2.56;69.71
76311;BME280;65120;59.304;18.294;2022-12-07T04:40:15;100826.53;;;-2.55;69.46
76311;BME280;65120;59.304;18.294;2022-12-07T04:42:42;100816.25;;;-2.57;69.50
76311;BME280;65120;59.304;18.294;2022-12-07T04:45:09;100815.44;;;-2.56;69.50
76311;BME280;65120;59.304;18.294;2022-12-07T04:47:36;100812.88;;;-2.56;69.49
76311;BME280;65120;59.304;18.294;2022-12-07T04:50:03;100800.75;;;-2.61;69.81
76311;BME280;65120;59.304;18.294;2022-12-07T04:52:32;100810.25;;;-2.57;69.57
76311;BME280;65120;59.304;18.294;2022-12-07T04:54:59;100808.56;;;-2.57;69.35
76311;BME280;65120;59.304;18.294;2022-12-07T04:57:25;100799.16;;;-2.58;69.50
76311;BME280;65120;59.304;18.294;2022-12-07T04:59:52;100807.78;;;-2.56;69.49
76311;BME280;65120;59.304;18.294;2022-12-07T05:02:19;100810.38;;;-2.54;69.45
76311;BME280;65120;59.304;18.294;2022-12-07T05:04:46;100781.06;;;-2.64;69.52
76311;BME280;65120;59.304;18.294;2022-12-07T05:07:12;100794.97;;;-2.56;69.57
76311;BME280;65120;59.304;18.294;2022-12-07T05:09:40;100799.19;;;-2.56;69.64
76311;BME280;65120;59.304;18.294;2022-12-07T05:12:07;100790.66;;;-2.57;69.17
76311;BME280;65120;59.304;18.294;2022-12-07T05:14:34;100783.81;;;-2.58;69.40
76311;BME280;65120;59.304;18.294;2022-12-07T05:17:01;100790.66;;;-2.57;69.09
76311;BME280;65120;59.304;18.294;2022-12-07T05:19:27;100783.00;;;-2.57;69.49
76311;BME280;65120;59.304;18.294;2022-12-07T05:21:54;100782.97;;;-2.58;69.66
76311;BME280;65120;59.304;18.294;2022-12-07T05:24:21;100770.22;;;-2.57;69.46
76311;BME280;65120;59.304;18.294;2022-12-07T05:26:49;100771.06;;;-2.56;69.48
76311;BME280;65120;59.304;18.294;2022-12-07T05:29:16;100765.09;;;-2.57;69.37
76311;BME280;65120;59.304;18.294;2022-12-07T05:31:44;100766.84;;;-2.56;69.52
76311;BME280;65120;59.304;18.294;2022-12-07T05:34:11;100759.97;;;-2.57;69.51
76311;BME280;65120;59.304;18.294;2022-12-07T05:36:38;100760.84;;;-2.56;69.37
76311;BME280;65120;59.304;18.294;2022-12-07T05:39:05;100741.66;;;-2.69;69.51
76311;BME280;65120;59.304;18.294;2022-12-07T05:41:32;100754.84;;;-2.57;69.45
76311;BME280;65120;59.304;18.294;2022-12-07T05:44:18;100754.00;;;-2.57;69.72
76311;BME280;65120;59.304;18.294;2022-12-07T05:46:45;100758.25;;;-2.58;69.41
76311;BME280;65120;59.304;18.294;2022-12-07T05:49:12;100764.22;;;-2.57;69.47
76311;BME280;65120;59.304;18.294;2022-12-07T05:51:38;100760.81;;;-2.58;69.56
76311;BME280;65120;59.304;18.294;2022-12-07T05:54:05;100747.16;;;-2.58;69.26
76311;BME280;65120;59.304;18.294;2022-12-07T05:56:32;100754.00;;;-2.57;69.51
76311;BME280;65120;59.304;18.294;2022-12-07T05:58:59;100756.56;;;-2.57;69.54
76311;BME280;65120;59.304;18.294;2022-12-07T06:01:44;100754.00;;;-2.57;69.36
76311;BME280;65120;59.304;18.294;2022-12-07T06:04:11;100759.97;;;-2.57;69.77
76311;BME280;65120;59.304;18.294;2022-12-07T06:06:38;100764.28;;;-2.56;69.37
76311;BME280;65120;59.304;18.294;2022-12-07T06:09:05;100766.84;;;-2.56;69.64
76311;BME280;65120;59.304;18.294;2022-12-07T06:11:31;100768.50;;;-2.56;69.78
76311;BME280;65120;59.304;18.294;2022-12-07T06:14:16;100759.97;;;-2.57;69.48
76311;BME280;65120;59.304;18.294;2022-12-07T06:16:44;100763.38;;;-2.58;69.55
76311;BME280;65120;59.304;18.294;2022-12-07T06:19:11;100769.41;;;-2.56;69.42
76311;BME280;65120;59.304;18.294;2022-12-07T06:21:37;100769.41;;;-2.56;69.40
76311;BME280;65120;59.304;18.294;2022-12-07T06:24:05;100771.97;;;-2.56;69.56
76311;BME280;65120;59.304;18.294;2022-12-07T06:26:32;100751.16;;;-2.65;69.39
76311;BME280;65120;59.304;18.294;2022-12-07T06:28:58;100778.81;;;-2.55;69.10
76311;BME280;65120;59.304;18.294;2022-12-07T06:31:25;100771.97;;;-2.56;69.40
76311;BME280;65120;59.304;18.294;2022-12-07T06:33:58;100769.31;;;-2.59;69.70
76311;BME280;65120;59.304;18.294;2022-12-07T06:36:25;100768.59;;;-2.55;69.54
76311;BME280;65120;59.304;18.294;2022-12-07T06:38:52;100775.41;;;-2.54;69.45
76311;BME280;65120;59.304;18.294;2022-12-07T06:41:19;100770.31;;;-2.54;69.50
76311;BME280;65120;59.304;18.294;2022-12-07T06:43:45;100769.41;;;-2.56;69.51
76311;BME280;65120;59.304;18.294;2022-12-07T06:46:12;100769.44;;;-2.54;69.38
76311;BME280;65120;59.304;18.294;2022-12-07T06:48:39;100766.84;;;-2.56;69.40
76311;BME280;65120;59.304;18.294;2022-12-07T06:51:08;100773.63;;;-2.56;69.53
76311;BME280;65120;59.304;18.294;2022-12-07T06:53:35;100747.72;;;-2.67;69.20
76311;BME280;65120;59.304;18.294;2022-12-07T06:56:03;100762.53;;;-2.57;69.36
76311;BME280;65120;59.304;18.294;2022-12-07T06:58:29;100772.75;;;-2.57;69.55
76311;BME280;65120;59.304;18.294;2022-12-07T07:00:56;100761.53;;;-2.62;69.33
76311;BME280;65120;59.304;18.294;2022-12-07T07:03:23;100765.91;;;-2.58;69.40
76311;BME280;65120;59.304;18.294;2022-12-07T07:05:50;100771.91;;;-2.57;69.50
76311;BME280;65120;59.304;18.294;2022-12-07T07:08:18;100781.25;;;-2.58;69.29
76311;BME280;65120;59.304;18.294;2022-12-07T07:10:45;100788.00;;;-2.60;69.18
76311;BME280;65120;59.304;18.294;2022-12-07T07:13:12;100787.13;;;-2.60;69.28
76311;BME280;65120;59.304;18.294;2022-12-07T07:15:38;100787.97;;;-2.61;69.21
76311;BME280;65120;59.304;18.294;2022-12-07T07:18:05;100792.22;;;-2.62;69.44
76311;BME280;65120;59.304;18.294;2022-12-07T07:20:32;100784.53;;;-2.62;69.36
76311;BME280;65120;59.304;18.294;2022-12-07T07:22:59;100789.66;;;-2.62;69.19
76311;BME280;65120;59.304;18.294;2022-12-07T07:25:27;100792.06;;;-2.65;69.30
76311;BME280;65120;59.304;18.294;2022-12-07T07:27:53;100787.09;;;-2.62;69.29
76311;BME280;65120;59.304;18.294;2022-12-07T07:30:20;100794.69;;;-2.63;69.38
76311;BME280;65120;59.304;18.294;2022-12-07T07:32:47;100796.44;;;-2.62;69.30
76311;BME280;65120;59.304;18.294;2022-12-07T07:35:14;100801.53;;;-2.62;69.18
76311;BME280;65120;59.304;18.294;2022-12-07T07:37:41;100796.44;;;-2.62;69.20
76311;BME280;65120;59.304;18.294;2022-12-07T07:40:08;100795.56;;;-2.63;69.02
76311;BME280;65120;59.304;18.294;2022-12-07T07:42:37;100792.16;;;-2.63;69.21
76311;BME280;65120;59.304;18.294;2022-12-07T07:45:04;100792.06;;;-2.65;69.51
76311;BME280;65120;59.304;18.294;2022-12-07T07:47:31;100797.19;;;-2.65;69.18
76311;BME280;65120;59.304;18.294;2022-12-07T07:49:58;100795.47;;;-2.66;69.32
76311;BME280;65120;59.304;18.294;2022-12-07T07:52:25;100788.63;;;-2.67;69.20
76311;BME280;65120;59.304;18.294;2022-12-07T07:54:52;100792.88;;;-2.67;69.07
76311;BME280;65120;59.304;18.294;2022-12-07T07:57:18;100794.53;;;-2.68;69.19
76311;BME280;65120;59.304;18.294;2022-12-07T07:59:47;100794.53;;;-2.68;69.19
76311;BME280;65120;59.304;18.294;2022-12-07T08:02:15;100796.22;;;-2.68;69.30
76311;BME280;65120;59.304;18.294;2022-12-07T08:04:42;100781.53;;;-2.74;69.11
76311;BME280;65120;59.304;18.294;2022-12-07T08:07:09;100789.38;;;-2.69;69.22
76311;BME280;65120;59.304;18.294;2022-12-07T08:09:36;100787.69;;;-2.69;69.11
76311;BME280;65120;59.304;18.294;2022-12-07T08:12:03;100787.63;;;-2.71;69.02
76311;BME280;65120;59.304;18.294;2022-12-07T08:14:30;100784.19;;;-2.71;69.33
76311;BME280;65120;59.304;18.294;2022-12-07T08:16:59;100780.78;;;-2.72;69.25
76311;BME280;65120;59.304;18.294;2022-12-07T08:19:26;100778.19;;;-2.73;69.41
76311;BME280;65120;59.304;18.294;2022-12-07T08:21:52;100769.69;;;-2.72;69.56
76311;BME280;65120;59.304;18.294;2022-12-07T08:24:21;100776.41;;;-2.74;69.73
76311;BME280;65120;59.304;18.294;2022-12-07T08:26:48;100771.31;;;-2.74;69.46
76311;BME280;65120;59.304;18.294;2022-12-07T08:29:15;100767.72;;;-2.79;69.64
76311;BME280;65120;59.304;18.294;2022-12-07T08:31:42;100766.09;;;-2.77;69.37
76311;BME280;65120;59.304;18.294;2022-12-07T08:34:11;100772.25;;;-2.72;69.46
76311;BME280;65120;59.304;18.294;2022-12-07T08:36:38;100770.53;;;-2.72;69.77
76311;BME280;65120;59.304;18.294;2022-12-07T08:39:05;100767.16;;;-2.71;69.85
76311;BME280;65120;59.304;18.294;2022-12-07T08:41:32;100762.94;;;-2.70;69.64
76311;BME280;65120;59.304;18.294;2022-12-07T08:43:59;100760.38;;;-2.70;69.49
76311;BME280;65120;59.304;18.294;2022-12-07T08:46:28;100753.59;;;-2.69;69.64
76311;BME280;65120;59.304;18.294;2022-12-07T08:49:02;100766.47;;;-2.66;69.72
76311;BME280;65120;59.304;18.294;2022-12-07T08:51:32;100763.06;;;-2.67;69.81
76311;BME280;65120;59.304;18.294;2022-12-07T08:54:01;100754.56;;;-2.66;69.85
76311;BME280;65120;59.304;18.294;2022-12-07T08:56:30;100752.84;;;-2.65;69.65
76311;BME280;65120;59.304;18.294;2022-12-07T08:58:57;100754.66;;;-2.63;69.90
76311;BME280;65120;59.304;18.294;2022-12-07T09:01:24;100751.31;;;-2.62;69.82
76311;BME280;65120;59.304;18.294;2022-12-07T09:03:52;100752.19;;;-2.60;69.81
76311;BME280;65120;59.304;18.294;2022-12-07T09:06:19;100749.72;;;-2.58;69.78
76311;BME280;65120;59.304;18.294;2022-12-07T09:08:49;100742.91;;;-2.58;69.93
76311;BME280;65120;59.304;18.294;2022-12-07T09:11:17;100744.59;;;-2.58;70.21
76311;BME280;65120;59.304;18.294;2022-12-07T09:13:44;100748.13;;;-2.55;69.69
76311;BME280;65120;59.304;18.294;2022-12-07T09:16:11;100730.22;;;-2.55;69.44
76311;BME280;65120;59.304;18.294;2022-12-07T09:18:38;100732.00;;;-2.52;69.91
76311;BME280;65120;59.304;18.294;2022-12-07T09:21:05;100733.75;;;-2.51;69.85
76311;BME280;65120;59.304;18.294;2022-12-07T09:23:31;100734.56;;;-2.52;70.10
76311;BME280;65120;59.304;18.294;2022-12-07T09:26:00;100738.19;;;-2.45;69.80
76311;BME280;65120;59.304;18.294;2022-12-07T09:28:27;100739.13;;;-2.43;70.01
76311;BME280;65120;59.304;18.294;2022-12-07T09:30:54;100739.19;;;-2.42;70.10
76311;BME280;65120;59.304;18.294;2022-12-07T09:33:21;100742.66;;;-2.40;69.73
76311;BME280;65120;59.304;18.294;2022-12-07T09:35:48;100737.59;;;-2.38;69.98
76311;BME280;65120;59.304;18.294;2022-12-07T09:38:16;100743.66;;;-2.35;70.01
76311;BME280;65120;59.304;18.294;2022-12-07T09:40:43;100736.94;;;-2.33;70.16
76311;BME280;65120;59.304;18.294;2022-12-07T09:43:14;100736.97;;;-2.31;70.02
76311;BME280;65120;59.304;18.294;2022-12-07T09:45:42;100737.88;;;-2.29;70.08
76311;BME280;65120;59.304;18.294;2022-12-07T09:48:16;100737.16;;;-2.25;70.01
76311;BME280;65120;59.304;18.294;2022-12-07T09:50:45;100732.97;;;-2.23;70.00
76311;BME280;65120;59.304;18.294;2022-12-07T09:53:15;100728.69;;;-2.24;69.88
76311;BME280;65120;59.304;18.294;2022-12-07T09:55:46;100733.13;;;-2.18;69.71
76311;BME280;65120;59.304;18.294;2022-12-07T09:58:19;100729.63;;;-2.22;69.92
76311;BME280;65120;59.304;18.294;2022-12-07T10:00:47;100735.81;;;-2.14;69.91
76311;BME280;65120;59.304;18.294;2022-12-07T10:03:14;100734.25;;;-2.10;69.91
76311;BME280;65120;59.304;18.294;2022-12-07T10:05:43;100734.28;;;-2.09;70.05
76311;BME280;65120;59.304;18.294;2022-12-07T10:08:11;100730.91;;;-2.08;70.23
76311;BME280;65120;59.304;18.294;2022-12-07T10:10:39;100732.75;;;-2.04;70.08
76311;BME280;65120;59.304;18.294;2022-12-07T10:13:08;100734.47;;;-2.03;69.98
76311;BME280;65120;59.304;18.294;2022-12-07T10:15:48;100724.31;;;-1.99;69.81
76311;BME280;65120;59.304;18.294;2022-12-07T10:18:20;100726.03;;;-2.00;69.79
76311;BME280;65120;59.304;18.294;2022-12-07T10:21:01;100727.03;;;-1.95;69.91
76311;BME280;65120;59.304;18.294;2022-12-07T10:23:28;100722.78;;;-1.94;69.75
76311;BME280;65120;59.304;18.294;2022-12-07T10:25:55;100709.97;;;-1.96;69.57
76311;BME280;65120;59.304;18.294;2022-12-07T10:28:22;100711.84;;;-1.90;69.89
76311;BME280;65120;59.304;18.294;2022-12-07T10:30:53;100713.56;;;-1.89;69.65
76311;BME280;65120;59.304;18.294;2022-12-07T10:33:35;100710.22;;;-1.87;69.91
76311;BME280;65120;59.304;18.294;2022-12-07T10:36:17;100703.41;;;-1.86;69.68
76311;BME280;65120;59.304;18.294;2022-12-07T10:38:47;100705.13;;;-1.85;69.52
76311;BME280;65120;59.304;18.294;2022-12-07T10:41:14;100703.47;;;-1.85;69.55
76311;BME280;65120;59.304;18.294;2022-12-07T10:43:48;100702.72;;;-1.82;69.69
76311;BME280;65120;59.304;18.294;2022-12-07T10:52:37;100690.03;;;-1.77;69.39
76311;BME280;65120;59.304;18.294;2022-12-07T10:55:15;100668.59;;;-1.81;69.66
76311;BME280;65120;59.304;18.294;2022-12-07T10:57:54;100679.00;;;-1.75;69.34
76311;BME280;65120;59.304;18.294;2022-12-07T11:00:24;100675.59;;;-1.74;69.71
76311;BME280;65120;59.304;18.294;2022-12-07T11:03:21;100672.25;;;-1.73;69.49
76311;BME280;65120;59.304;18.294;2022-12-07T11:05:54;100666.25;;;-1.73;69.36
76311;BME280;65120;59.304;18.294;2022-12-07T11:08:41;100660.34;;;-1.71;69.64
76311;BME280;65120;59.304;18.294;2022-12-07T11:11:13;100656.97;;;-1.70;69.14
76311;BME280;65120;59.304;18.294;2022-12-07T11:13:47;100656.88;;;-1.73;69.14
76311;BME280;65120;59.304;18.294;2022-12-07T11:16:34;100657.88;;;-1.68;69.13
76311;BME280;65120;59.304;18.294;2022-12-07T11:19:14;100657.91;;;-1.66;69.22
76311;BME280;65120;59.304;18.294;2022-12-07T11:21:49;100663.91;;;-1.66;69.71
76311;BME280;65120;59.304;18.294;2022-12-07T11:24:27;100650.28;;;-1.65;69.35
76311;BME280;65120;59.304;18.294;2022-12-07T11:27:19;100640.06;;;-1.65;69.15
76311;BME280;65120;59.304;18.294;2022-12-07T11:30:00;100643.50;;;-1.63;69.12
76311;BME280;65120;59.304;18.294;2022-12-07T11:32:42;100634.16;;;-1.62;69.33
76311;BME280;65120;59.304;18.294;2022-12-07T11:35:19;100625.50;;;-1.66;69.43
76311;BME280;65120;59.304;18.294;2022-12-07T11:37:50;100632.44;;;-1.62;69.19
76311;BME280;65120;59.304;18.294;2022-12-07T11:40:23;100628.19;;;-1.61;68.99
76311;BME280;65120;59.304;18.294;2022-12-07T11:42:55;100623.94;;;-1.61;68.82
76311;BME280;65120;59.304;18.294;2022-12-07T11:45:25;100624.72;;;-1.63;69.28
76311;BME280;65120;59.304;18.294;2022-12-07T11:47:55;100625.63;;;-1.61;69.00
76311;BME280;65120;59.304;18.294;2022-12-07T11:50:30;100623.06;;;-1.61;68.93
76311;BME280;65120;59.304;18.294;2022-12-07T11:53:01;100616.25;;;-1.61;68.98
76311;BME280;65120;59.304;18.294;2022-12-07T11:55:42;100615.41;;;-1.60;69.39
76311;BME280;65120;59.304;18.294;2022-12-07T11:58:20;100597.38;;;-1.64;69.45
76311;BME280;65120;59.304;18.294;2022-12-07T12:00:49;100612.84;;;-1.60;68.67
76311;BME280;65120;59.304;18.294;2022-12-07T12:03:25;100604.34;;;-1.59;69.14
76311;BME280;65120;59.304;18.294;2022-12-07T12:05:57;100603.53;;;-1.58;68.89
76311;BME280;65120;59.304;18.294;2022-12-07T12:08:27;100600.09;;;-1.58;68.88
76311;BME280;65120;59.304;18.294;2022-12-07T12:11:00;100593.28;;;-1.58;68.63
76311;BME280;65120;59.304;18.294;2022-12-07T12:14:05;100591.59;;;-1.57;68.75
76311;BME280;65120;59.304;18.294;2022-12-07T12:19:41;100589.91;;;-1.56;68.96
76311;BME280;65120;59.304;18.294;2022-12-07T12:22:15;100589.06;;;-1.55;68.88
76311;BME280;65120;59.304;18.294;2022-12-07T12:24:45;100589.06;;;-1.55;68.64
76311;BME280;65120;59.304;18.294;2022-12-07T12:27:20;100588.25;;;-1.54;68.96
76311;BME280;65120;59.304;18.294;2022-12-07T12:29:53;100577.91;;;-1.58;68.78
76311;BME280;65120;59.304;18.294;2022-12-07T12:32:22;100578.91;;;-1.52;68.85
76311;BME280;65120;59.304;18.294;2022-12-07T12:35:01;100574.66;;;-1.52;68.55
76311;BME280;65120;59.304;18.294;2022-12-07T12:37:46;100575.56;;;-1.50;68.69
76311;BME280;65120;59.304;18.294;2022-12-07T12:40:42;100579.00;;;-1.49;68.75
76311;BME280;65120;59.304;18.294;2022-12-07T12:43:45;100583.25;;;-1.50;68.35
76311;BME280;65120;59.304;18.294;2022-12-07T12:46:37;100582.38;;;-1.50;68.96
76311;BME280;65120;59.304;18.294;2022-12-07T12:49:32;100578.94;;;-1.51;69.03
76311;BME280;65120;59.304;18.294;2022-12-07T12:52:00;100577.28;;;-1.50;68.57
76311;BME280;65120;59.304;18.294;2022-12-07T12:54:31;100573.81;;;-1.51;68.78
76311;BME280;65120;59.304;18.294;2022-12-07T12:57:05;100582.38;;;-1.50;69.03
76311;BME280;65120;59.304;18.294;2022-12-07T12:59:36;100575.50;;;-1.51;68.85
76311;BME280;65120;59.304;18.294;2022-12-07T13:02:16;100575.50;;;-1.51;68.53
76311;BME280;65120;59.304;18.294;2022-12-07T13:04:52;100577.28;;;-1.50;68.80
76311;BME280;65120;59.304;18.294;2022-12-07T13:07:58;100576.44;;;-1.49;69.07
76311;BME280;65120;59.304;18.294;2022-12-07T13:10:34;100577.28;;;-1.50;69.03
76311;BME280;65120;59.304;18.294;2022-12-07T13:13:04;100583.19;;;-1.51;69.04